createdAt,value
2022-09-20T00:01:41.314Z,3.03
2022-09-20T00:06:43.755Z,3.00
2022-09-20T00:11:47.533Z,3.25
2022-09-20T00:16:49.938Z,3.20
2022-09-20T00:21:52.397Z,3.67
2022-09-20T00:26:56.145Z,3.60
2022-09-20T00:31:59.629Z,3.83
2022-09-20T00:37:03.048Z,4.15
2022-09-20T00:42:07.122Z,4.35
2022-09-20T00:47:12.313Z,4.53
2022-09-20T00:52:15.850Z,5.80
2022-09-20T01:02:24.094Z,5.15
2022-09-20T01:07:26.949Z,4.55
2022-09-20T01:12:31.185Z,4.80
2022-09-20T01:17:36.318Z,5.10
2022-09-20T01:22:44.842Z,5.20
2022-09-20T01:27:49.411Z,5.65
2022-09-20T01:33:08.201Z,4.40
2022-09-20T01:38:19.768Z,4.50
2022-09-20T01:43:26.770Z,5.85
2022-09-20T01:48:34.723Z,7.25
2022-09-20T01:53:54.765Z,6.45
2022-09-20T01:59:24.761Z,6.20
2022-09-20T02:04:35.588Z,5.75
2022-09-20T02:09:46.757Z,6.50
2022-09-20T02:14:53.994Z,6.18
2022-09-20T02:20:05.684Z,6.55
2022-09-20T02:25:13.045Z,7.20
2022-09-20T02:30:24.949Z,6.10
2022-09-20T02:35:35.311Z,5.80
2022-09-20T02:40:52.212Z,6.05
2022-09-20T02:46:00.548Z,6.32
2022-09-20T02:51:07.342Z,6.72
2022-09-20T02:56:13.356Z,6.60
2022-09-20T03:01:22.980Z,7.22
2022-09-20T03:06:31.062Z,6.72
2022-09-20T03:11:36.963Z,5.57
2022-09-20T03:16:48.686Z,6.20
2022-09-20T03:22:01.926Z,5.88
2022-09-20T03:27:06.592Z,6.40
2022-09-20T03:32:20.763Z,5.40
2022-09-20T03:42:26.887Z,6.07
2022-09-20T03:47:38.732Z,6.32
2022-09-20T03:52:58.278Z,7.35
2022-09-20T03:58:10.491Z,6.68
2022-09-20T04:03:26.014Z,6.18
2022-09-20T04:08:41.065Z,5.88
2022-09-20T04:13:47.826Z,4.88
2022-09-20T04:18:56.810Z,5.50
2022-09-20T04:24:01.562Z,5.32
2022-09-20T04:29:16.692Z,5.53
2022-09-20T04:34:24.050Z,5.05
2022-09-20T04:39:33.333Z,5.30
2022-09-20T04:45:02.684Z,5.30
2022-09-20T04:50:17.177Z,5.15
2022-09-20T04:55:40.704Z,4.93
2022-09-20T05:00:49.719Z,4.82
2022-09-20T05:06:11.210Z,6.15
2022-09-20T05:11:25.641Z,5.22
2022-09-20T05:16:39.572Z,5.80
2022-09-20T05:21:51.087Z,5.82
2022-09-20T05:27:01.175Z,4.70
2022-09-20T05:32:07.506Z,5.88
2022-09-20T05:37:18.029Z,6.15
2022-09-20T05:42:32.700Z,5.45
2022-09-20T05:47:41.208Z,5.85
2022-09-20T05:52:52.344Z,5.65
2022-09-20T05:58:02.473Z,6.03
2022-09-20T06:03:07.741Z,5.50
2022-09-20T06:08:23.474Z,6.57
2022-09-20T06:13:38.101Z,6.55
2022-09-20T06:18:44.376Z,5.80
2022-09-20T06:23:50.218Z,5.88
2022-09-20T06:28:58.391Z,5.53
2022-09-20T06:34:04.188Z,6.50
2022-09-20T06:39:31.224Z,4.95
2022-09-20T06:44:33.586Z,4.40
2022-09-20T06:49:36.420Z,4.20
2022-09-20T06:54:43.438Z,4.90
2022-09-20T06:59:46.808Z,4.25
2022-09-20T07:09:52.765Z,3.97
2022-09-20T07:14:57.190Z,3.75
2022-09-20T07:19:59.853Z,4.18
2022-09-20T07:25:03.639Z,3.10
2022-09-20T07:30:06.645Z,3.05
2022-09-20T07:35:09.477Z,2.75
2022-09-20T07:40:33.919Z,2.50
2022-09-20T07:45:39.626Z,2.70
2022-09-20T07:50:42.102Z,2.42
2022-09-20T07:55:44.492Z,2.07
2022-09-20T08:00:52.084Z,2.60
2022-09-20T08:05:59.799Z,2.58
2022-09-20T08:11:03.084Z,2.20
2022-09-20T08:21:10.220Z,1.92
2022-09-20T08:26:13.674Z,1.88
2022-09-20T08:31:17.154Z,1.77
2022-09-20T08:36:24.375Z,1.35
2022-09-20T08:41:27.933Z,1.42
2022-09-20T08:46:35.384Z,1.48
2022-09-20T08:51:40.745Z,1.40
2022-09-20T08:56:44.433Z,1.73
2022-09-20T09:01:48.682Z,1.83
2022-09-20T09:06:53.141Z,1.63
2022-09-20T09:11:56.186Z,1.50
2022-09-20T09:16:58.969Z,1.13
2022-09-20T09:27:14.875Z,1.02
2022-09-20T09:32:23.434Z,0.75
2022-09-20T09:37:28.819Z,1.40
2022-09-20T09:42:33.128Z,1.13
2022-09-20T09:47:38.011Z,0.95
2022-09-20T09:52:40.386Z,0.90
2022-09-20T09:57:53.862Z,0.88
2022-09-20T10:08:06.229Z,1.20
2022-09-20T10:13:16.131Z,0.90
2022-09-20T10:18:26.817Z,1.00
2022-09-20T10:29:11.258Z,1.20
2022-09-20T10:34:21.261Z,0.90
2022-09-20T10:39:26.378Z,0.95
2022-09-20T10:44:36.965Z,1.30
2022-09-20T10:51:14.320Z,1.40
2022-09-20T10:55:15.367Z,0.98
2022-09-20T11:00:22.174Z,0.90
2022-09-20T11:05:30.151Z,1.75
2022-09-20T11:10:36.122Z,1.80
2022-09-20T11:15:43.375Z,1.70
2022-09-20T11:20:48.201Z,1.38
2022-09-20T11:25:51.752Z,1.27
2022-09-20T11:31:00.203Z,1.02
2022-09-20T11:36:03.885Z,0.70
2022-09-20T11:41:09.825Z,1.30
2022-09-20T11:46:16.676Z,1.27
2022-09-20T11:51:37.102Z,1.30
2022-09-20T11:56:40.474Z,0.70
2022-09-20T12:01:44.532Z,0.75
2022-09-20T12:06:47.946Z,1.10
2022-09-20T12:11:52.466Z,1.02
2022-09-20T12:16:56.800Z,2.20
2022-09-20T12:22:19.071Z,0.90
2022-09-20T12:27:22.418Z,1.58
2022-09-20T12:32:42.751Z,1.48
2022-09-20T12:37:46.542Z,1.38
2022-09-20T12:42:56.744Z,1.60
2022-09-20T12:47:59.209Z,1.45
2022-09-20T12:53:04.554Z,1.20
2022-09-20T12:58:10.660Z,1.90
2022-09-20T13:03:14.277Z,0.95
2022-09-20T13:08:20.958Z,1.00
2022-09-20T13:13:29.831Z,0.80
2022-09-20T13:18:32.487Z,1.80
2022-09-20T13:23:42.881Z,0.98
2022-09-20T13:28:48.127Z,0.95
2022-09-20T13:33:50.855Z,0.98
2022-09-20T13:38:56.184Z,1.13
2022-09-20T13:43:59.884Z,1.02
2022-09-20T13:49:15.042Z,1.38
2022-09-20T13:54:26.402Z,1.08
2022-09-20T13:59:33.041Z,1.00
2022-09-20T14:04:35.721Z,1.08
2022-09-20T14:09:39.958Z,1.08
2022-09-20T14:14:42.704Z,1.23
2022-09-20T14:19:47.824Z,1.25
2022-09-20T14:25:05.972Z,2.22
2022-09-20T14:30:28.856Z,1.73
2022-09-20T14:35:31.506Z,1.60
2022-09-20T14:40:43.447Z,1.20
2022-09-20T14:45:52.731Z,1.08
2022-09-20T14:51:09.567Z,0.88
2022-09-20T14:56:13.889Z,0.80
2022-09-20T15:01:22.641Z,1.30
2022-09-20T15:06:25.385Z,0.95
2022-09-20T15:11:29.981Z,1.20
2022-09-20T15:16:33.348Z,1.30
2022-09-20T15:21:36.152Z,2.22
2022-09-20T15:26:39.802Z,1.80
2022-09-20T15:31:42.278Z,1.10
2022-09-20T15:36:45.705Z,1.30
2022-09-20T15:41:52.148Z,1.80
2022-09-20T15:46:55.028Z,2.13
2022-09-20T15:51:57.389Z,2.38
2022-09-20T15:57:01.178Z,1.67
2022-09-20T16:02:03.668Z,1.60
2022-09-20T16:07:07.453Z,2.53
2022-09-20T16:12:12.195Z,0.98
2022-09-20T16:17:14.854Z,1.70
2022-09-20T16:22:19.279Z,0.98
2022-09-20T16:27:22.950Z,1.80
2022-09-20T16:32:25.368Z,1.20
2022-09-20T16:37:32.793Z,0.85
2022-09-20T16:42:37.961Z,1.35
2022-09-20T16:47:40.965Z,1.10
2022-09-20T16:52:43.565Z,1.83
2022-09-20T16:57:49.292Z,2.17
2022-09-20T17:02:52.846Z,0.93
2022-09-20T17:07:55.324Z,1.17
2022-09-20T17:12:59.786Z,1.30
2022-09-20T17:18:05.391Z,0.98
2022-09-20T17:23:09.115Z,1.20
2022-09-20T17:28:14.273Z,3.13
2022-09-20T17:33:17.669Z,3.53
2022-09-20T17:43:24.813Z,2.70
2022-09-20T17:48:27.198Z,1.80
2022-09-20T17:53:31.357Z,2.20
2022-09-20T17:58:37.273Z,2.42
2022-09-20T18:03:40.695Z,2.30
2022-09-20T18:13:47.691Z,2.53
2022-09-20T18:18:50.701Z,4.47
2022-09-20T18:23:53.422Z,4.32
2022-09-20T18:28:58.311Z,5.30
2022-09-20T18:34:03.624Z,3.80
2022-09-20T18:39:07.569Z,3.63
2022-09-20T18:44:12.378Z,3.50
2022-09-20T18:49:16.725Z,4.40
2022-09-20T18:54:19.373Z,8.75
2022-09-20T18:59:24.089Z,4.77
2022-09-20T19:04:43.409Z,5.32
2022-09-20T19:09:49.369Z,4.65
2022-09-20T19:15:01.265Z,3.88
2022-09-20T19:20:04.901Z,3.50
2022-09-20T19:25:19.757Z,3.58
2022-09-20T19:30:23.968Z,2.83
2022-09-20T19:35:29.341Z,3.60
2022-09-20T19:40:36.045Z,4.18
2022-09-20T19:45:46.938Z,4.30
2022-09-20T19:50:50.625Z,6.32
2022-09-20T19:55:54.333Z,7.60
2022-09-20T20:00:58.824Z,7.70
2022-09-20T20:06:08.110Z,5.15
2022-09-20T20:11:13.785Z,5.07
2022-09-20T20:16:21.353Z,5.10
2022-09-20T20:21:26.737Z,5.60
2022-09-20T20:26:29.123Z,5.88
2022-09-20T20:31:32.969Z,6.03
2022-09-20T20:36:35.386Z,5.75
2022-09-20T20:41:38.561Z,5.57
2022-09-20T20:46:42.352Z,5.05
2022-09-20T20:51:44.807Z,6.47
2022-09-20T20:56:47.188Z,6.13
2022-09-20T21:01:52.074Z,7.57
2022-09-20T21:06:54.953Z,7.72
2022-09-20T21:11:57.345Z,7.00
2022-09-20T21:17:01.761Z,6.57
2022-09-20T21:22:04.219Z,7.07
2022-09-20T21:27:06.740Z,7.50
2022-09-20T21:32:10.438Z,11.98
2022-09-20T21:37:12.909Z,9.73
2022-09-20T21:42:17.023Z,10.40
2022-09-20T21:47:20.803Z,8.95
2022-09-20T21:52:23.164Z,9.50
2022-09-20T21:57:26.846Z,8.63
2022-09-20T22:07:35.117Z,8.75
2022-09-20T22:12:37.460Z,9.25
2022-09-20T22:17:40.039Z,8.30
2022-09-20T22:22:43.800Z,8.77
2022-09-20T22:27:46.128Z,8.18
2022-09-20T22:32:48.445Z,8.70
2022-09-20T22:37:53.165Z,7.90
2022-09-20T22:42:56.337Z,7.05
2022-09-20T22:47:58.749Z,7.88
2022-09-20T22:53:02.426Z,7.22
2022-09-20T23:03:07.146Z,5.50
2022-09-20T23:08:10.881Z,6.95
2022-09-20T23:13:13.246Z,7.28
2022-09-20T23:18:15.673Z,5.95
2022-09-20T23:23:23.543Z,6.13
2022-09-20T23:28:26.664Z,7.53
2022-09-20T23:33:29.096Z,5.70
2022-09-20T23:38:32.816Z,7.65
2022-09-20T23:43:35.753Z,7.18
2022-09-20T23:48:38.930Z,6.80
2022-09-20T23:53:42.832Z,7.97
2022-09-20T23:58:45.262Z,7.50
